Time;durP1;ratioP1;P1;durP2;ratioP2;P2;SDS_P1;SDS_P2;PMS_P1;PMS_P2;Temp;Humidity;BMP_temperature;BMP_pressure;BME280_temperature;BME280_humidity;BME280_pressure;Samples;Min_cycle;Max_cycle;Signal;HPM_P1;HPM_P2
2021/07/19 00:02:07;;;;;;;3.83;3.47;;;29.60;41.10;;;;;;4299419;33;20082;-37
2021/07/19 00:04:45;;;;;;;6.15;3.35;;;29.60;41.20;;;;;;4311529;33;20129;-37
2021/07/19 00:07:12;;;;;;;6.78;3.67;;;29.60;41.20;;;;;;4300200;33;20532;-37
2021/07/19 00:09:44;;;;;;;11.73;4.53;;;29.70;41.10;;;;;;4310863;33;20060;-37
2021/07/19 00:12:12;;;;;;;6.05;4.12;;;29.80;41.10;;;;;;4311491;33;20158;-37
2021/07/19 00:14:39;;;;;;;6.30;3.70;;;29.90;40.90;;;;;;4300139;33;20071;-37
2021/07/19 00:17:05;;;;;;;4.62;4.00;;;29.90;40.80;;;;;;4302357;33;20075;-37
2021/07/19 00:19:32;;;;;;;5.10;4.10;;;29.90;40.70;;;;;;4301975;33;20595;-37
2021/07/19 00:21:58;;;;;;;3.85;3.55;;;29.90;40.70;;;;;;4314062;33;20214;-37
2021/07/19 00:24:24;;;;;;;6.22;3.87;;;30.00;40.60;;;;;;4302418;33;20520;-37
2021/07/19 00:26:51;;;;;;;6.37;4.40;;;29.90;40.60;;;;;;4301910;33;20107;-37
2021/07/19 00:29:17;;;;;;;5.03;4.28;;;29.90;40.70;;;;;;4313915;33;20082;-37
2021/07/19 00:31:44;;;;;;;5.93;3.92;;;29.80;40.70;;;;;;4357392;32;20161;-37
2021/07/19 00:34:10;;;;;;;6.57;4.30;;;29.80;40.80;;;;;;4301565;33;20130;-37
2021/07/19 00:36:36;;;;;;;7.57;3.83;;;29.70;40.90;;;;;;4314078;33;20060;-37
2021/07/19 00:39:10;;;;;;;6.57;4.60;;;29.60;41.00;;;;;;4313506;33;20087;-37
2021/07/19 00:41:38;;;;;;;6.00;4.12;;;29.40;41.20;;;;;;4314257;33;20071;-37
2021/07/19 00:44:06;;;;;;;4.70;4.25;;;29.30;41.60;;;;;;4313513;33;20191;-36
2021/07/19 00:46:33;;;;;;;4.15;3.75;;;29.20;41.80;;;;;;4301503;33;20067;-37
2021/07/19 00:48:59;;;;;;;7.05;3.87;;;29.20;41.90;;;;;;4289636;33;20091;-37
2021/07/19 00:51:26;;;;;;;4.87;3.95;;;29.20;41.90;;;;;;4258186;33;20122;-37
2021/07/19 00:53:53;;;;;;;8.48;3.95;;;29.30;41.80;;;;;;4246531;33;20064;-37
2021/07/19 00:56:19;;;;;;;5.50;3.67;;;29.30;41.80;;;;;;4258500;33;20620;-37
2021/07/19 00:58:48;;;;;;;4.90;3.80;;;29.30;41.80;;;;;;4258034;33;20571;-37
2021/07/19 01:01:15;;;;;;;5.35;4.18;;;29.30;41.80;;;;;;4258678;33;20095;-37
2021/07/19 01:03:41;;;;;;;5.43;4.12;;;29.40;41.90;;;;;;4246304;33;20451;-37
2021/07/19 01:06:08;;;;;;;8.00;3.85;;;29.50;41.90;;;;;;4258549;33;20108;-37
2021/07/19 01:08:35;;;;;;;8.32;4.60;;;29.50;42.00;;;;;;4257583;33;20096;-37
2021/07/19 01:11:01;;;;;;;4.78;3.15;;;29.50;41.70;;;;;;4267918;33;20650;-37
2021/07/19 01:13:28;;;;;;;5.32;4.32;;;29.40;41.60;;;;;;4300270;33;20587;-37
2021/07/19 01:15:54;;;;;;;7.57;4.47;;;29.40;41.90;;;;;;4283042;33;20531;-37
2021/07/19 01:18:22;;;;;;;7.30;4.03;;;29.40;42.00;;;;;;4283207;33;20563;-37
2021/07/19 01:21:03;;;;;;;6.78;3.30;;;29.40;42.10;;;;;;4259662;33;20067;-37
2021/07/19 01:23:52;;;;;;;4.50;3.45;;;29.50;42.10;;;;;;4283534;33;20083;-37
2021/07/19 01:26:37;;;;;;;6.00;4.05;;;29.50;41.90;;;;;;4271094;33;20162;-37
2021/07/19 01:29:04;;;;;;;17.00;7.95;;;29.60;42.00;;;;;;4299835;33;20105;-37
2021/07/19 01:31:32;;;;;;;6.20;3.75;;;29.70;41.90;;;;;;4300270;33;20082;-37
2021/07/19 01:34:04;;;;;;;8.50;4.90;;;29.80;41.80;;;;;;4299877;33;20174;-37
2021/07/19 01:36:49;;;;;;;12.10;6.62;;;29.90;41.70;;;;;;4282951;33;20088;-37
2021/07/19 01:39:15;;;;;;;24.45;15.68;;;30.00;41.60;;;;;;4260930;33;20541;-37
2021/07/19 01:41:41;;;;;;;12.48;6.30;;;30.10;41.50;;;;;;4271393;33;20075;-37
2021/07/19 01:44:08;;;;;;;12.77;7.05;;;30.20;41.30;;;;;;4271450;33;20528;-37
2021/07/19 01:46:35;;;;;;;13.80;6.65;;;30.40;41.20;;;;;;4259180;33;20540;-37
2021/07/19 01:49:01;;;;;;;16.02;5.80;;;30.50;41.00;;;;;;4259518;33;20061;-37
2021/07/19 01:51:27;;;;;;;16.25;5.93;;;30.60;41.40;;;;;;4259370;33;20195;-37
2021/07/19 01:53:55;;;;;;;11.52;5.37;;;30.70;40.50;;;;;;4303884;33;20076;-36
2021/07/19 01:56:22;;;;;;;21.60;6.55;;;30.90;40.50;;;;;;4300180;33;20152;-37
2021/07/19 01:58:48;;;;;;;24.02;6.82;;;31.10;40.40;;;;;;4324803;33;20180;-36
2021/07/19 02:01:14;;;;;;;10.40;4.80;;;31.30;40.10;;;;;;4314273;33;20075;-36
2021/07/19 02:03:41;;;;;;;6.45;4.05;;;31.60;39.70;;;;;;4302320;33;20664;-36
2021/07/19 02:06:07;;;;;;;8.85;4.35;;;31.90;39.10;;;;;;4314513;33;20162;-36
2021/07/19 02:08:35;;;;;;;12.77;4.90;;;32.20;38.60;;;;;;4342806;33;20508;-37
2021/07/19 02:11:02;;;;;;;11.57;4.40;;;32.50;38.10;;;;;;4330865;33;20105;-37
2021/07/19 02:13:31;;;;;;;7.85;4.20;;;32.80;37.80;;;;;;4330462;33;20479;-37
2021/07/19 02:15:58;;;;;;;9.75;5.18;;;33.10;37.50;;;;;;4344446;33;20063;-37
2021/07/19 02:18:26;;;;;;;10.13;4.32;;;33.40;37.00;;;;;;4344443;33;20166;-37
2021/07/19 02:20:54;;;;;;;18.15;5.57;;;33.60;36.70;;;;;;4318196;33;20070;-37
2021/07/19 02:23:22;;;;;;;10.98;4.07;;;33.90;36.60;;;;;;4285852;33;20152;-37
2021/07/19 02:25:54;;;;;;;10.02;4.05;;;34.20;36.40;;;;;;4273881;33;20083;-37
2021/07/19 02:28:23;;;;;;;8.18;3.87;;;34.40;36.00;;;;;;4285697;33;20499;-37
2021/07/19 02:30:49;;;;;;;5.00;3.22;;;34.70;36.40;;;;;;4285596;33;20055;-37
2021/07/19 02:33:20;;;;;;;3.87;3.17;;;35.00;35.50;;;;;;4285794;33;20488;-37
2021/07/19 02:35:53;;;;;;;4.43;3.12;;;35.10;35.20;;;;;;4286169;33;20067;-37
2021/07/19 02:38:19;;;;;;;6.00;3.47;;;35.40;35.00;;;;;;4285012;33;20561;-36
2021/07/19 02:40:46;;;;;;;4.68;3.00;;;35.70;34.70;;;;;;4285957;33;20063;-36
2021/07/19 02:43:12;;;;;;;5.18;2.65;;;35.90;35.00;;;;;;4287908;33;20106;-36
2021/07/19 02:45:42;;;;;;;3.83;3.30;;;36.00;34.90;;;;;;4288011;33;20068;-36
2021/07/19 02:48:11;;;;;;;4.97;3.90;;;36.10;35.00;;;;;;4312027;33;20060;-36
2021/07/19 02:50:39;;;;;;;5.47;3.92;;;36.20;36.10;;;;;;4311754;33;20778;-36
2021/07/19 02:53:13;;;;;;;10.85;4.50;;;36.40;36.90;;;;;;4282690;33;20063;-37
2021/07/19 02:55:40;;;;;;;10.73;4.60;;;36.40;37.50;;;;;;4271538;33;20126;-37
2021/07/19 02:58:07;;;;;;;7.00;4.10;;;36.20;37.40;;;;;;4262579;33;20076;-37
2021/07/19 03:00:35;;;;;;;11.27;4.43;;;36.10;37.50;;;;;;4280501;33;20060;-37
2021/07/19 03:03:11;;;;;;;7.05;4.60;;;35.90;37.90;;;;;;4285464;33;20207;-37
2021/07/19 03:05:38;;;;;;;6.00;4.00;;;35.70;38.20;;;;;;4285088;33;20083;-37
2021/07/19 03:08:06;;;;;;;6.95;4.40;;;35.60;38.80;;;;;;4284941;33;20076;-37
2021/07/19 03:10:34;;;;;;;6.53;4.03;;;35.40;38.80;;;;;;4297066;33;20559;-37
2021/07/19 03:13:08;;;;;;;6.50;4.00;;;35.30;38.90;;;;;;4285303;33;20088;-36
2021/07/19 03:15:35;;;;;;;;;;;35.30;39.10;;;;;;4300586;33;20067;-35
2021/07/19 03:18:06;;;;;;;5.03;3.87;;;35.30;38.60;;;;;;4311543;33;20046;-37
2021/07/19 03:20:36;;;;;;;9.55;4.70;;;35.30;38.00;;;;;;4299466;33;20094;-37
2021/07/19 03:23:09;;;;;;;6.78;4.30;;;35.30;38.10;;;;;;4299922;33;20083;-37
2021/07/19 03:25:35;;;;;;;8.80;5.03;;;35.30;37.80;;;;;;4311432;33;20095;-37
2021/07/19 03:28:02;;;;;;;9.88;4.12;;;35.40;37.80;;;;;;4284876;33;20555;-37
2021/07/19 03:30:28;;;;;;;7.00;4.20;;;35.40;37.40;;;;;;4298488;33;20086;-37
2021/07/19 03:32:55;;;;;;;5.95;3.58;;;35.50;37.00;;;;;;4313522;33;20542;-37
2021/07/19 03:35:26;;;;;;;4.78;3.92;;;35.50;36.50;;;;;;4313683;33;20063;-36
2021/07/19 03:37:52;;;;;;;7.30;3.62;;;35.60;36.70;;;;;;4326046;33;20071;-36
2021/07/19 03:40:21;;;;;;;10.80;4.10;;;35.70;36.40;;;;;;4314045;33;20067;-36
2021/07/19 03:42:48;;;;;;;7.22;3.33;;;35.70;35.90;;;;;;4326323;33;20146;-36
2021/07/19 03:45:15;;;;;;;4.93;3.58;;;35.80;35.30;;;;;;4314108;33;21045;-37
2021/07/19 03:47:43;;;;;;;4.07;3.05;;;35.90;35.00;;;;;;4314130;33;20168;-35
2021/07/19 03:50:11;;;;;;;10.18;3.92;;;35.90;34.80;;;;;;4301589;33;20067;-36
2021/07/19 03:52:38;;;;;;;11.45;4.00;;;36.00;34.20;;;;;;4325968;33;20655;-37
2021/07/19 03:55:10;;;;;;;7.03;3.60;;;36.10;34.10;;;;;;4325891;33;20114;-36
2021/07/19 03:57:38;;;;;;;6.53;3.37;;;36.10;33.80;;;;;;4301586;33;20530;-37
2021/07/19 04:00:15;;;;;;;6.97;2.75;;;36.20;33.40;;;;;;4301726;33;20192;-36
2021/07/19 04:02:44;;;;;;;4.45;3.30;;;36.30;33.20;;;;;;4326250;33;20102;-36
2021/07/19 04:05:14;;;;;;;3.25;2.95;;;36.50;32.80;;;;;;4319676;33;20074;-36
2021/07/19 04:07:45;;;;;;;8.20;3.58;;;36.70;32.30;;;;;;4342965;33;20062;-36
2021/07/19 04:10:14;;;;;;;4.72;2.53;;;36.80;31.80;;;;;;4329228;33;20163;-37
2021/07/19 04:12:42;;;;;;;5.07;3.10;;;36.90;31.50;;;;;;4284556;33;20166;-37
2021/07/19 04:15:09;;;;;;;5.57;3.25;;;37.20;31.30;;;;;;4272274;33;20064;-38
2021/07/19 04:17:35;;;;;;;3.83;3.40;;;37.30;30.60;;;;;;4296517;33;20055;-37
2021/07/19 04:20:09;;;;;;;4.03;2.70;;;37.40;30.40;;;;;;4284620;33;20095;-38
2021/07/19 04:22:36;;;;;;;6.25;2.90;;;37.40;30.20;;;;;;4296862;33;20118;-37
2021/07/19 04:25:09;;;;;;;6.10;2.72;;;37.60;29.90;;;;;;4272776;33;20144;-37
2021/07/19 04:27:39;;;;;;;5.30;3.07;;;37.70;29.80;;;;;;4296602;33;20169;-37
2021/07/19 04:30:06;;;;;;;4.90;2.62;;;37.80;29.60;;;;;;4284887;33;20473;-37
2021/07/19 04:32:33;;;;;;;4.90;2.92;;;38.00;29.50;;;;;;4296708;33;20216;-37
2021/07/19 04:34:59;;;;;;;4.47;3.50;;;38.20;29.10;;;;;;4284542;33;20095;-37
2021/07/19 04:37:26;;;;;;;4.20;3.03;;;38.30;29.10;;;;;;4296351;33;20149;-37
2021/07/19 04:39:52;;;;;;;6.28;3.53;;;38.40;28.90;;;;;;4284688;33;20063;-37
2021/07/19 04:42:19;;;;;;;4.90;2.78;;;38.30;28.70;;;;;;4296415;33;20056;-37
2021/07/19 04:44:45;;;;;;;7.68;3.10;;;38.20;28.70;;;;;;4296088;33;20103;-36
2021/07/19 04:47:12;;;;;;;5.80;2.20;;;38.20;28.80;;;;;;4295932;33;20500;-36
2021/07/19 04:49:40;;;;;;;4.37;2.83;;;38.30;28.70;;;;;;4297782;33;20058;-37
2021/07/19 04:52:06;;;;;;;6.95;2.60;;;38.60;28.60;;;;;;4328683;33;20081;-37
2021/07/19 04:54:38;;;;;;;5.22;3.00;;;39.10;28.40;;;;;;4342799;33;20059;-36
2021/07/19 04:57:12;;;;;;;5.18;2.90;;;39.50;28.00;;;;;;4317879;33;20071;-36
2021/07/19 04:59:43;;;;;;;6.68;3.20;;;39.80;27.60;;;;;;4342752;32;20091;-37
2021/07/19 05:02:12;;;;;;;6.62;3.03;;;39.90;27.60;;;;;;4345367;32;20066;-37
2021/07/19 05:04:39;;;;;;;4.57;2.67;;;39.90;27.70;;;;;;4344181;33;20502;-41
2021/07/19 05:07:06;;;;;;;4.03;2.37;;;40.10;27.50;;;;;;4343579;33;20152;-37
2021/07/19 05:09:32;;;;;;;3.03;2.40;;;40.40;27.40;;;;;;4331553;33;20120;-38
2021/07/19 05:11:59;;;;;;;5.37;3.22;;;40.70;27.10;;;;;;4343660;33;20066;-38
2021/07/19 05:14:25;;;;;;;9.77;2.65;;;40.80;26.90;;;;;;4331982;33;20071;-38
2021/07/19 05:16:52;;;;;;;6.20;2.95;;;40.80;26.80;;;;;;4345595;33;20144;-37
2021/07/19 05:19:18;;;;;;;4.85;2.53;;;40.90;26.80;;;;;;4343584;33;20143;-37
2021/07/19 05:21:45;;;;;;;9.18;3.00;;;41.20;26.80;;;;;;4343649;33;20100;-36
2021/07/19 05:24:11;;;;;;;8.77;5.68;;;41.30;26.70;;;;;;4343552;33;20067;-37
2021/07/19 05:26:38;;;;;;;5.28;3.47;;;41.30;26.70;;;;;;4345167;32;20152;-38
2021/07/19 05:29:05;;;;;;;8.75;2.87;;;41.40;26.60;;;;;;4343279;33;20075;-37
2021/07/19 05:31:32;;;;;;;5.50;2.90;;;41.50;26.60;;;;;;4345104;32;20074;-38
2021/07/19 05:33:58;;;;;;;3.62;2.60;;;41.50;26.60;;;;;;4345061;32;20131;-38
2021/07/19 05:36:24;;;;;;;10.50;2.67;;;41.40;26.60;;;;;;4345112;32;20085;-37
2021/07/19 05:38:51;;;;;;;3.53;3.12;;;41.40;26.70;;;;;;4345011;32;20197;-37
2021/07/19 05:41:17;;;;;;;2.92;2.60;;;41.40;26.80;;;;;;4344816;32;20120;-37
2021/07/19 05:43:44;;;;;;;5.40;2.78;;;41.40;26.90;;;;;;4343408;33;20143;-37
2021/07/19 05:46:11;;;;;;;5.12;2.83;;;41.40;26.80;;;;;;4344517;32;20064;-37
2021/07/19 05:48:37;;;;;;;6.45;3.00;;;41.40;26.70;;;;;;4343497;33;20070;-37
2021/07/19 05:51:04;;;;;;;5.10;3.40;;;41.40;27.10;;;;;;4344701;32;20180;-37
2021/07/19 05:53:30;;;;;;;6.75;2.65;;;41.40;27.10;;;;;;4343058;33;20539;-37
2021/07/19 05:55:57;;;;;;;2.97;2.60;;;41.50;26.90;;;;;;4343583;33;20195;-37
2021/07/19 05:58:23;;;;;;;3.30;3.03;;;41.50;27.10;;;;;;4343065;33;20557;-37
2021/07/19 06:00:49;;;;;;;9.70;3.15;;;41.60;26.90;;;;;;4326919;33;20079;-37
2021/07/19 06:03:16;;;;;;;3.75;2.80;;;41.70;27.10;;;;;;4327281;33;20068;-37
2021/07/19 06:05:43;;;;;;;4.05;3.60;;;41.80;27.00;;;;;;4326932;33;20079;-37
2021/07/19 06:08:09;;;;;;;5.40;3.45;;;41.80;27.10;;;;;;4314908;33;20495;-37
2021/07/19 06:10:36;;;;;;;6.90;2.87;;;41.80;26.70;;;;;;4327532;33;20059;-37
2021/07/19 06:13:02;;;;;;;7.53;3.03;;;41.60;27.00;;;;;;4326176;33;20071;-37
2021/07/19 06:15:29;;;;;;;6.72;3.08;;;41.50;27.70;;;;;;4327145;33;20064;-37
2021/07/19 06:17:55;;;;;;;6.18;3.28;;;41.50;27.70;;;;;;4326977;33;20129;-38
2021/07/19 06:20:28;;;;;;;4.85;3.53;;;41.50;27.80;;;;;;4327306;33;20621;-38
2021/07/19 06:23:03;;;;;;;4.20;3.80;;;41.50;28.00;;;;;;4327158;33;20682;-38
2021/07/19 06:25:36;;;;;;;7.85;2.80;;;41.60;27.80;;;;;;4327870;33;20155;-38
2021/07/19 06:28:04;;;;;;;6.90;3.45;;;41.70;27.70;;;;;;4327394;33;20074;-37
2021/07/19 06:30:31;;;;;;;4.18;2.87;;;41.60;27.30;;;;;;4314649;33;20154;-38
2021/07/19 06:32:58;;;;;;;4.93;3.17;;;41.60;27.20;;;;;;4314994;33;20074;-37
2021/07/19 06:35:24;;;;;;;4.28;2.80;;;41.60;27.90;;;;;;4314283;33;20060;-37
2021/07/19 06:37:51;;;;;;;5.03;3.28;;;41.60;27.20;;;;;;4332375;33;20178;-37
2021/07/19 06:40:18;;;;;;;4.10;3.40;;;41.60;27.30;;;;;;4342439;33;20055;-38
2021/07/19 06:42:44;;;;;;;7.15;3.15;;;41.60;27.50;;;;;;4342477;33;20174;-37
2021/07/19 06:45:12;;;;;;;4.12;3.25;;;41.50;27.50;;;;;;4342497;33;20087;-37
2021/07/19 06:47:39;;;;;;;5.35;3.47;;;41.60;27.40;;;;;;4344105;32;20051;-37
2021/07/19 06:50:10;;;;;;;4.50;3.28;;;41.80;27.40;;;;;;4342276;33;20110;-37
2021/07/19 06:52:40;;;;;;;3.22;3.00;;;41.80;27.30;;;;;;4344249;32;20066;-37
2021/07/19 06:55:08;;;;;;;4.70;3.58;;;41.90;27.30;;;;;;4343777;32;20594;-37
2021/07/19 06:57:34;;;;;;;4.82;3.80;;;41.90;27.30;;;;;;4339201;33;20551;-37
2021/07/19 07:00:07;;;;;;;6.62;3.40;;;42.00;27.60;;;;;;4343712;33;20598;-38
2021/07/19 07:02:33;;;;;;;7.07;3.37;;;42.10;27.60;;;;;;4343987;33;20488;-39
2021/07/19 07:04:59;;;;;;;5.55;3.78;;;42.10;27.40;;;;;;4343482;33;20207;-38
2021/07/19 07:07:26;;;;;;;4.72;3.30;;;42.00;27.40;;;;;;4317779;33;20148;-38
2021/07/19 07:09:52;;;;;;;4.28;3.75;;;41.60;28.00;;;;;;4325549;33;20168;-38
2021/07/19 07:12:20;;;;;;;6.50;3.72;;;41.40;28.20;;;;;;4326489;33;20187;-37
2021/07/19 07:14:47;;;;;;;8.20;4.05;;;41.40;28.50;;;;;;4325850;33;20554;-36
2021/07/19 07:17:13;;;;;;;7.53;4.05;;;41.40;28.40;;;;;;4326018;33;20091;-38
2021/07/19 07:19:40;;;;;;;6.15;3.65;;;41.30;28.30;;;;;;4326314;33;20137;-37
2021/07/19 07:22:06;;;;;;;7.20;3.65;;;41.30;28.40;;;;;;4326080;33;20106;-37
2021/07/19 07:24:34;;;;;;;7.18;3.97;;;41.30;28.50;;;;;;4314003;33;20205;-39
2021/07/19 07:27:00;;;;;;;4.50;3.53;;;41.30;28.40;;;;;;4326297;33;20138;-37
2021/07/19 07:29:27;;;;;;;6.87;4.10;;;41.10;28.30;;;;;;4325668;33;20131;-38
2021/07/19 07:31:53;;;;;;;3.92;3.47;;;41.20;28.30;;;;;;4325974;33;20106;-38
2021/07/19 07:34:20;;;;;;;6.07;3.67;;;41.10;28.20;;;;;;4325932;33;20218;-37
2021/07/19 07:36:46;;;;;;;6.03;4.10;;;40.90;28.10;;;;;;4326031;33;20098;-37
2021/07/19 07:39:13;;;;;;;4.53;3.53;;;40.80;28.20;;;;;;4325489;33;20083;-37
2021/07/19 07:41:39;;;;;;;9.77;4.60;;;40.90;28.30;;;;;;4325784;33;20099;-37
2021/07/19 07:44:06;;;;;;;7.85;4.37;;;41.20;28.20;;;;;;4325560;33;20158;-37
2021/07/19 07:46:32;;;;;;;9.27;4.78;;;41.40;28.10;;;;;;4317041;33;20140;-37
2021/07/19 07:48:58;;;;;;;8.50;4.37;;;41.50;28.00;;;;;;4343538;33;20155;-37
2021/07/19 07:51:25;;;;;;;9.23;3.85;;;41.50;28.20;;;;;;4343160;33;20090;-39
2021/07/19 07:53:51;;;;;;;10.45;4.65;;;41.50;28.40;;;;;;4343013;33;20164;-38
2021/07/19 07:56:18;;;;;;;8.32;4.87;;;41.40;28.50;;;;;;4329544;33;20063;-37
2021/07/19 07:58:44;;;;;;;8.20;4.72;;;41.40;28.40;;;;;;4343113;33;20474;-38
2021/07/19 08:01:11;;;;;;;9.30;4.72;;;41.30;28.30;;;;;;4342946;32;20062;-37
2021/07/19 08:03:37;;;;;;;9.57;4.22;;;41.30;28.30;;;;;;4342674;32;20108;-38
2021/07/19 08:06:04;;;;;;;5.03;4.47;;;41.30;28.20;;;;;;4343077;33;20070;-38
2021/07/19 08:08:30;;;;;;;6.22;4.82;;;41.40;28.10;;;;;;4345935;32;20546;-38
2021/07/19 08:10:57;;;;;;;9.68;5.25;;;41.50;28.20;;;;;;4358070;32;20530;-38
2021/07/19 08:13:23;;;;;;;6.30;4.82;;;41.50;28.20;;;;;;4357786;32;20132;-38
2021/07/19 08:15:50;;;;;;;8.43;5.00;;;41.40;28.30;;;;;;4357918;32;20147;-38
2021/07/19 08:18:16;;;;;;;9.52;4.82;;;41.30;28.50;;;;;;4357528;32;20070;-37
2021/07/19 08:20:44;;;;;;;10.93;5.97;;;41.30;28.50;;;;;;4357553;32;20159;-37
2021/07/19 08:23:11;;;;;;;8.52;4.87;;;41.30;28.50;;;;;;4357854;32;20069;-38
2021/07/19 08:25:37;;;;;;;5.87;4.72;;;41.30;28.70;;;;;;4357479;32;20077;-36
2021/07/19 08:28:04;;;;;;;7.37;6.22;;;41.40;28.50;;;;;;4344361;32;20164;-37
2021/07/19 08:30:31;;;;;;;6.87;5.82;;;41.40;28.50;;;;;;4344277;32;20074;-39
2021/07/19 08:32:58;;;;;;;5.93;4.53;;;41.40;28.50;;;;;;4357327;32;20089;-38
2021/07/19 08:35:25;;;;;;;11.95;5.25;;;41.40;28.70;;;;;;4344426;32;20511;-38
2021/07/19 08:37:56;;;;;;;6.65;5.45;;;41.50;29.00;;;;;;4359988;32;20126;-38
2021/07/19 08:40:23;;;;;;;8.23;5.47;;;41.60;28.60;;;;;;4360332;32;20150;-38
2021/07/19 08:42:49;;;;;;;15.07;6.25;;;41.70;28.50;;;;;;4360208;32;20085;-37
2021/07/19 08:45:16;;;;;;;7.87;5.80;;;41.70;28.40;;;;;;4359771;32;20092;-39
2021/07/19 08:47:45;;;;;;;6.22;5.72;;;41.90;28.30;;;;;;4333527;32;20243;-38
2021/07/19 08:50:13;;;;;;;8.50;5.75;;;41.90;28.00;;;;;;4346328;32;20058;-38
2021/07/19 08:52:40;;;;;;;5.93;5.15;;;42.10;28.20;;;;;;4360135;32;20161;-39
2021/07/19 08:55:10;;;;;;;6.30;5.68;;;42.30;27.60;;;;;;4328312;33;20175;-38
2021/07/19 08:57:43;;;;;;;13.25;6.32;;;42.50;27.70;;;;;;4328584;33;20488;-38
2021/07/19 09:00:10;;;;;;;6.73;5.77;;;42.70;27.50;;;;;;4327891;33;20115;-38
2021/07/19 09:02:37;;;;;;;6.75;6.10;;;42.80;27.60;;;;;;4328028;33;20085;-38
2021/07/19 09:05:04;;;;;;;10.52;6.12;;;42.90;27.40;;;;;;4328221;33;20059;-39
2021/07/19 09:07:34;;;;;;;7.93;6.57;;;42.80;26.80;;;;;;4327971;33;20074;-39
2021/07/19 09:10:01;;;;;;;6.10;5.50;;;42.60;26.50;;;;;;4328070;33;20067;-38
2021/07/19 09:12:43;;;;;;;6.40;5.80;;;42.50;27.00;;;;;;4327779;33;20087;-38
2021/07/19 09:15:12;;;;;;;13.40;5.80;;;42.60;27.10;;;;;;4328230;33;20507;-37
2021/07/19 09:17:39;;;;;;;9.40;6.18;;;42.60;26.70;;;;;;4328286;33;20085;-38
2021/07/19 09:20:09;;;;;;;6.20;5.50;;;42.50;26.60;;;;;;4313476;33;20102;-38
2021/07/19 09:22:36;;;;;;;9.00;5.40;;;42.50;26.50;;;;;;4301663;33;20140;-38
2021/07/19 09:25:17;;;;;;;7.80;6.32;;;42.80;26.70;;;;;;4313326;33;20106;-38
2021/07/19 09:28:07;;;;;;;5.60;5.10;;;43.00;26.30;;;;;;4312827;33;20518;-39
2021/07/19 09:30:36;;;;;;;7.00;6.32;;;43.20;26.10;;;;;;4313356;33;20142;-38
2021/07/19 09:33:10;;;;;;;6.72;6.10;;;43.30;26.10;;;;;;4298772;33;20081;-38
2021/07/19 09:35:42;;;;;;;7.50;6.75;;;43.40;26.00;;;;;;4327869;33;20472;-38
2021/07/19 09:38:11;;;;;;;6.70;6.18;;;43.40;26.30;;;;;;4327803;33;20538;-38
2021/07/19 09:40:39;;;;;;;7.07;6.43;;;43.40;26.20;;;;;;4328033;33;20078;-39
2021/07/19 09:43:24;;;;;;;6.12;5.53;;;43.30;26.40;;;;;;4327695;33;20135;-38
2021/07/19 09:46:05;;;;;;;11.32;6.10;;;43.30;26.60;;;;;;4327354;33;20094;-38
2021/07/19 09:48:32;;;;;;;6.12;5.50;;;43.30;26.70;;;;;;4326602;33;20192;-38
2021/07/19 09:50:59;;;;;;;7.90;6.40;;;43.50;26.90;;;;;;4327504;33;20071;-38
2021/07/19 09:53:43;;;;;;;6.68;6.03;;;43.80;26.80;;;;;;4315597;33;20071;-37
2021/07/19 09:56:15;;;;;;;6.05;5.55;;;44.10;26.30;;;;;;4327400;33;20269;-37
2021/07/19 09:58:47;;;;;;;6.85;6.22;;;44.40;25.90;;;;;;4343766;33;20101;-37
2021/07/19 10:01:26;;;;;;;6.80;6.07;;;44.50;26.20;;;;;;4330418;33;20157;-37
2021/07/19 10:04:22;;;;;;;5.60;5.20;;;44.60;26.00;;;;;;4344660;33;20551;-38
2021/07/19 10:06:53;;;;;;;6.45;5.55;;;44.50;25.80;;;;;;4297972;33;20064;-38
2021/07/19 10:09:23;;;;;;;5.72;5.22;;;44.50;25.70;;;;;;4297894;33;20166;-38
2021/07/19 10:11:54;;;;;;;6.37;5.78;;;44.30;25.60;;;;;;4285885;33;20186;-38
2021/07/19 10:14:31;;;;;;;9.65;6.80;;;44.10;25.90;;;;;;4297968;33;20163;-39
2021/07/19 10:16:58;;;;;;;8.85;5.47;;;44.10;26.00;;;;;;4298015;33;20510;-37
2021/07/19 10:19:25;;;;;;;9.68;5.85;;;43.80;25.80;;;;;;4297944;33;20078;-37
2021/07/19 10:21:51;;;;;;;9.52;6.45;;;43.80;25.90;;;;;;4297537;33;20610;-37
2021/07/19 10:24:19;;;;;;;5.85;5.37;;;44.10;26.10;;;;;;4297875;33;20606;-37
2021/07/19 10:26:46;;;;;;;7.37;5.37;;;44.20;25.90;;;;;;4297911;33;20083;-38
2021/07/19 10:29:13;;;;;;;7.65;5.90;;;44.40;25.80;;;;;;4285980;33;20709;-38
2021/07/19 10:31:39;;;;;;;6.30;5.70;;;44.60;25.80;;;;;;4286178;33;20075;-38
2021/07/19 10:34:06;;;;;;;6.07;5.50;;;44.70;25.40;;;;;;4297562;33;20060;-38
2021/07/19 10:36:48;;;;;;;5.93;5.35;;;44.90;25.50;;;;;;4285517;33;20090;-38
2021/07/19 10:39:36;;;;;;;6.07;5.53;;;45.10;25.50;;;;;;4297910;33;20143;-38
2021/07/19 10:42:10;;;;;;;7.22;6.00;;;45.10;24.80;;;;;;4286912;33;20138;-38
2021/07/19 10:44:39;;;;;;;6.80;6.12;;;44.70;25.10;;;;;;4343774;33;20052;-38
2021/07/19 10:47:26;;;;;;;6.50;5.90;;;44.40;25.00;;;;;;4311584;33;20080;-38
2021/07/19 10:50:06;;;;;;;5.80;5.30;;;43.90;25.30;;;;;;4312093;33;20086;-38
2021/07/19 10:52:38;;;;;;;9.20;5.90;;;43.60;25.50;;;;;;4312400;33;20148;-38
2021/07/19 10:55:11;;;;;;;6.30;5.70;;;43.30;25.60;;;;;;4312178;33;20478;-38
2021/07/19 10:57:42;;;;;;;;;;;43.10;25.70;;;;;;4317511;33;20070;-38
2021/07/19 11:00:10;;;;;;;8.32;5.07;;;42.80;25.70;;;;;;4326428;33;19965;-38
2021/07/19 11:02:36;;;;;;;8.43;6.30;;;42.70;25.80;;;;;;4326408;33;20059;-37
2021/07/19 11:05:03;;;;;;;5.60;5.20;;;42.80;25.80;;;;;;4314310;33;20078;-38
2021/07/19 11:07:42;;;;;;;5.95;5.20;;;42.70;25.70;;;;;;4296654;33;20101;-38
2021/07/19 11:10:20;;;;;;;9.32;6.00;;;42.80;25.70;;;;;;4297199;33;20096;-37
2021/07/19 11:12:52;;;;;;;8.40;5.93;;;42.80;25.90;;;;;;4297133;33;20091;-37
2021/07/19 11:15:21;;;;;;;7.30;5.50;;;42.90;26.40;;;;;;4285379;33;20472;-37
2021/07/19 11:17:48;;;;;;;10.35;5.57;;;43.00;26.10;;;;;;4285609;33;20299;-38
2021/07/19 11:20:16;;;;;;;6.35;5.70;;;43.10;25.80;;;;;;4285197;33;20068;-38
2021/07/19 11:22:43;;;;;;;6.20;5.47;;;42.90;25.80;;;;;;4296781;33;20225;-38
2021/07/19 11:25:15;;;;;;;6.82;5.28;;;42.80;25.80;;;;;;4285228;33;20068;-38
2021/07/19 11:27:46;;;;;;;7.18;6.20;;;42.70;26.10;;;;;;4267390;33;20664;-38
2021/07/19 11:30:24;;;;;;;9.60;5.43;;;42.70;26.00;;;;;;4268050;33;20064;-39
2021/07/19 11:32:51;;;;;;;6.15;5.60;;;42.60;25.70;;;;;;4268087;33;20095;-37
2021/07/19 11:35:20;;;;;;;5.62;5.18;;;42.50;25.70;;;;;;4268151;33;20548;-39
2021/07/19 11:37:56;;;;;;;6.50;5.50;;;42.50;25.90;;;;;;4239313;33;20174;-38
2021/07/19 11:40:40;;;;;;;6.60;5.28;;;42.50;26.00;;;;;;4239891;33;20462;-38
2021/07/19 11:43:19;;;;;;;5.95;4.97;;;42.60;25.90;;;;;;4239601;33;20077;-38
2021/07/19 11:45:51;;;;;;;5.87;5.37;;;42.80;25.90;;;;;;4262962;33;20143;-37
2021/07/19 11:48:21;;;;;;;5.95;5.32;;;42.80;26.20;;;;;;4267721;33;20092;-38
2021/07/19 11:50:49;;;;;;;6.65;5.53;;;43.00;26.60;;;;;;4267947;33;20077;-39
2021/07/19 11:53:21;;;;;;;9.80;5.20;;;43.30;27.20;;;;;;4268028;33;20072;-38
2021/07/19 11:55:47;;;;;;;10.93;6.10;;;43.70;28.00;;;;;;4268318;33;20069;-38
2021/07/19 11:58:15;;;;;;;6.57;5.68;;;44.00;26.40;;;;;;4276744;33;20076;-37
2021/07/19 12:00:44;;;;;;;9.70;5.37;;;44.10;25.90;;;;;;4296281;33;20096;-38
2021/07/19 12:03:17;;;;;;;6.90;5.68;;;44.20;26.20;;;;;;4296370;33;20071;-38
2021/07/19 12:05:54;;;;;;;15.60;5.47;;;44.30;25.60;;;;;;4284565;33;20087;-38
2021/07/19 12:08:34;;;;;;;8.57;5.43;;;44.30;25.50;;;;;;4298144;33;20164;-38
2021/07/19 12:11:10;;;;;;;5.20;4.70;;;44.40;25.60;;;;;;4314231;33;20073;-39
2021/07/19 12:13:39;;;;;;;5.87;5.32;;;44.40;25.30;;;;;;4314111;33;20074;-38
2021/07/19 12:16:05;;;;;;;6.45;5.25;;;44.50;25.40;;;;;;4353494;32;20058;-38
2021/07/19 12:18:34;;;;;;;7.87;5.35;;;44.50;25.20;;;;;;4360749;32;20068;-38
2021/07/19 12:21:16;;;;;;;6.20;5.60;;;44.60;25.20;;;;;;4360758;32;20070;-38
2021/07/19 12:23:57;;;;;;;5.07;4.75;;;44.70;25.50;;;;;;4360558;32;20548;-38
2021/07/19 12:26:32;;;;;;;7.43;5.28;;;44.80;25.10;;;;;;4361172;32;20105;-37
2021/07/19 12:29:10;;;;;;;6.78;5.87;;;44.70;25.40;;;;;;4360567;32;20058;-37
2021/07/19 12:31:47;;;;;;;6.20;5.70;;;44.70;25.60;;;;;;4360203;32;20503;-37
2021/07/19 12:34:41;;;;;;;6.10;5.05;;;44.70;25.30;;;;;;4360546;32;20183;-37
2021/07/19 12:37:12;;;;;;;;;;;44.80;25.10;;;;;;4360878;32;20065;-37
2021/07/19 12:39:47;;;;;;;6.87;5.10;;;44.70;25.10;;;;;;4346829;32;19977;-38
2021/07/19 12:42:18;;;;;;;5.68;5.20;;;44.60;25.10;;;;;;4360938;32;20609;-37
2021/07/19 12:44:53;;;;;;;6.68;5.82;;;44.40;25.20;;;;;;4360495;32;20078;-38
2021/07/19 12:47:20;;;;;;;8.07;5.25;;;44.30;25.30;;;;;;4347262;32;20155;-37
2021/07/19 12:49:47;;;;;;;8.02;5.75;;;44.10;25.20;;;;;;4360688;32;20542;-38
2021/07/19 12:52:15;;;;;;;5.50;5.00;;;44.00;25.50;;;;;;4360243;32;20059;-38
2021/07/19 12:55:02;;;;;;;9.77;6.20;;;43.80;25.60;;;;;;4346236;32;20459;-38
2021/07/19 12:57:33;;;;;;;8.32;5.72;;;43.70;25.60;;;;;;4355032;32;20542;-38